createdAt,value
2023-04-23T00:00:37.168Z,99736.60
2023-04-23T00:03:10.341Z,99736.08
2023-04-23T00:05:38.825Z,99739.79
2023-04-23T00:08:07.215Z,99740.43
2023-04-23T00:10:37.195Z,99743.91
2023-04-23T00:13:05.233Z,99743.92
2023-04-23T00:15:33.450Z,99745.50
2023-04-23T00:18:01.522Z,99753.04
2023-04-23T00:20:29.892Z,99753.00
2023-04-23T00:22:57.674Z,99754.81
2023-04-23T00:25:25.483Z,99757.67
2023-04-23T00:27:53.372Z,99759.23
2023-04-23T00:30:21.254Z,99755.69
2023-04-23T00:32:49.019Z,99755.20
2023-04-23T00:35:17.083Z,99755.80
2023-04-23T00:37:44.868Z,99757.36
2023-04-23T00:40:12.795Z,99756.91
2023-04-23T00:42:40.858Z,99757.56
2023-04-23T00:45:08.893Z,99754.92
2023-04-23T00:47:36.892Z,99755.48
2023-04-23T00:50:06.586Z,99753.81
2023-04-23T00:52:36.111Z,99754.19
2023-04-23T00:55:04.313Z,99754.59
2023-04-23T00:57:32.645Z,99753.27
2023-04-23T01:00:00.479Z,99754.83
2023-04-23T01:02:28.694Z,99757.10
2023-04-23T01:04:56.615Z,99754.38
2023-04-23T01:07:25.554Z,99755.08
2023-04-23T01:09:53.908Z,99755.46
2023-04-23T01:12:21.854Z,99756.03
2023-04-23T01:14:49.592Z,99751.97
2023-04-23T01:17:17.823Z,99752.05
2023-04-23T01:19:46.125Z,99753.45
2023-04-23T01:22:14.449Z,99753.00
2023-04-23T01:24:45.261Z,99754.31
2023-04-23T01:27:13.044Z,99753.41
2023-04-23T01:29:40.875Z,99754.49
2023-04-23T01:32:08.830Z,99754.47
2023-04-23T01:34:39.317Z,99753.89
2023-04-23T01:37:07.334Z,99758.19
2023-04-23T01:39:37.156Z,99761.08
2023-04-23T01:42:07.116Z,99760.77
2023-04-23T01:44:35.010Z,99760.30
2023-04-23T01:47:03.357Z,99761.20
2023-04-23T01:49:33.057Z,99758.11
2023-04-23T01:52:00.950Z,99760.58
2023-04-23T01:54:28.895Z,99760.21
2023-04-23T01:56:59.013Z,99757.65
2023-04-23T01:59:26.797Z,99763.84
2023-04-23T02:01:54.740Z,99762.68
2023-04-23T02:04:22.793Z,99763.73
2023-04-23T02:06:52.909Z,99764.31
2023-04-23T02:09:21.284Z,99771.05
2023-04-23T02:11:49.551Z,99769.10
2023-04-23T02:14:17.981Z,99772.21
2023-04-23T02:16:47.326Z,99769.13
2023-04-23T02:19:17.103Z,99769.09
2023-04-23T02:21:45.268Z,99769.73
2023-04-23T02:24:13.557Z,99772.20
2023-04-23T02:26:41.944Z,99770.89
2023-04-23T02:29:09.909Z,99771.67
2023-04-23T02:31:37.967Z,99773.02
2023-04-23T02:34:06.383Z,99776.17
2023-04-23T02:36:34.493Z,99777.09
2023-04-23T02:39:02.269Z,99775.72
2023-04-23T02:41:30.349Z,99780.39
2023-04-23T02:43:58.332Z,99777.30
2023-04-23T02:46:26.200Z,99782.95
2023-04-23T02:48:54.073Z,99782.48
2023-04-23T02:51:21.919Z,99784.31
2023-04-23T02:53:49.851Z,99784.20
2023-04-23T02:56:17.666Z,99782.85
2023-04-23T02:58:45.411Z,99785.42
2023-04-23T03:01:13.224Z,99785.33
2023-04-23T03:03:41.358Z,99782.33
2023-04-23T03:06:09.824Z,99785.17
2023-04-23T03:08:37.594Z,99785.83
2023-04-23T03:11:06.267Z,99787.02
2023-04-23T03:13:34.312Z,99789.27
2023-04-23T03:16:04.658Z,99789.16
2023-04-23T03:18:33.091Z,99791.38
2023-04-23T03:21:01.096Z,99794.95
2023-04-23T03:23:29.624Z,99798.13
2023-04-23T03:25:58.000Z,99800.16
2023-04-23T03:28:25.943Z,99803.25
2023-04-23T03:30:53.793Z,99803.55
2023-04-23T03:33:21.730Z,99809.57
2023-04-23T03:35:49.577Z,99808.08
2023-04-23T03:38:21.034Z,99811.05
2023-04-23T03:40:50.863Z,99812.33
2023-04-23T03:43:18.877Z,99812.67
2023-04-23T03:46:18.902Z,99814.43
2023-04-23T03:48:46.843Z,99814.70
2023-04-23T03:51:20.568Z,99814.34
2023-04-23T03:53:50.650Z,99818.48
2023-04-23T03:56:37.469Z,99821.85
2023-04-23T03:59:27.598Z,99824.20
2023-04-23T04:01:58.568Z,99825.09
2023-04-23T04:04:26.693Z,99829.31
2023-04-23T04:06:56.771Z,99831.58
2023-04-23T04:09:28.518Z,99833.76
2023-04-23T04:11:56.327Z,99838.83
2023-04-23T04:14:24.306Z,99835.00
2023-04-23T04:16:52.213Z,99837.40
2023-04-23T04:19:20.441Z,99836.31
2023-04-23T04:21:48.381Z,99841.13
2023-04-23T04:24:16.736Z,99839.27
2023-04-23T04:26:45.399Z,99840.27
2023-04-23T04:29:13.218Z,99845.37
2023-04-23T04:31:41.137Z,99847.00
2023-04-23T04:34:10.590Z,99848.45
2023-04-23T04:36:38.484Z,99852.75
2023-04-23T04:39:06.672Z,99852.32
2023-04-23T04:41:34.548Z,99854.45
2023-04-23T04:44:02.382Z,99853.95
2023-04-23T04:46:31.926Z,99857.45
2023-04-23T04:48:59.780Z,99858.64
2023-04-23T04:51:28.526Z,99856.88
2023-04-23T04:53:56.748Z,99860.51
2023-04-23T04:56:25.981Z,99863.05
2023-04-23T04:58:53.834Z,99862.45
2023-04-23T05:01:23.331Z,99863.48
2023-04-23T05:03:51.429Z,99864.42
2023-04-23T05:06:19.442Z,99862.30
2023-04-23T05:08:49.959Z,99867.69
2023-04-23T05:11:18.192Z,99876.96
2023-04-23T05:13:47.724Z,99878.12
2023-04-23T05:16:15.988Z,99879.38
2023-04-23T05:18:43.860Z,99879.98
2023-04-23T05:21:11.643Z,99882.55
2023-04-23T05:23:39.491Z,99884.92
2023-04-23T05:26:07.685Z,99888.83
2023-04-23T05:28:35.568Z,99885.23
2023-04-23T05:31:03.388Z,99889.45
2023-04-23T05:33:36.439Z,99890.46
2023-04-23T05:36:10.851Z,99891.77
2023-04-23T05:38:38.855Z,99889.74
2023-04-23T05:41:06.752Z,99891.73
2023-04-23T05:43:35.239Z,99896.17
2023-04-23T05:46:06.446Z,99892.31
2023-04-23T05:48:34.848Z,99898.61
2023-04-23T05:51:03.008Z,99891.12
2023-04-23T05:53:31.223Z,99892.27
2023-04-23T05:55:59.132Z,99897.25
2023-04-23T05:58:27.082Z,99896.05
2023-04-23T06:00:55.347Z,99900.33
2023-04-23T06:03:23.364Z,99901.47
2023-04-23T06:05:51.542Z,99907.30
2023-04-23T06:08:20.466Z,99908.80
2023-04-23T06:10:48.502Z,99911.72
2023-04-23T06:13:16.336Z,99913.02
2023-04-23T06:15:44.159Z,99914.01
2023-04-23T06:18:12.251Z,99916.58
2023-04-23T06:20:40.327Z,99916.47
2023-04-23T06:23:08.049Z,99912.54
2023-04-23T06:25:36.369Z,99911.89
2023-04-23T06:28:04.339Z,99913.31
2023-04-23T06:30:35.492Z,99913.94
2023-04-23T06:33:03.944Z,99915.16
2023-04-23T06:35:31.844Z,99915.52
2023-04-23T06:37:59.653Z,99916.94
2023-04-23T06:40:27.387Z,99917.58
2023-04-23T06:42:55.792Z,99917.95
2023-04-23T06:45:55.226Z,99919.04
2023-04-23T06:48:23.075Z,99915.20
2023-04-23T06:50:51.108Z,99919.20
2023-04-23T06:53:19.559Z,99918.45
2023-04-23T06:55:49.842Z,99918.96
2023-04-23T06:58:18.306Z,99918.95
2023-04-23T07:00:46.286Z,99917.64
2023-04-23T07:03:14.636Z,99916.09
2023-04-23T07:05:42.584Z,99917.36
2023-04-23T07:08:10.332Z,99916.28
2023-04-23T07:10:38.360Z,99914.77
2023-04-23T07:13:06.884Z,99911.41
2023-04-23T07:15:34.765Z,99915.52
2023-04-23T07:18:02.998Z,99913.27
2023-04-23T07:20:31.753Z,99911.61
2023-04-23T07:22:59.548Z,99912.88
2023-04-23T07:25:27.332Z,99913.92
2023-04-23T07:27:55.115Z,99913.48
2023-04-23T07:30:23.372Z,99916.38
2023-04-23T07:32:51.364Z,99918.34
2023-04-23T07:35:19.284Z,99918.52
2023-04-23T07:37:47.110Z,99918.64
2023-04-23T07:40:14.924Z,99917.80
2023-04-23T07:42:42.699Z,99918.23
2023-04-23T07:45:11.552Z,99917.52
2023-04-23T07:47:39.325Z,99915.54
2023-04-23T07:50:07.797Z,99917.45
2023-04-23T07:52:35.779Z,99919.07
2023-04-23T07:55:03.633Z,99915.15
2023-04-23T07:57:31.830Z,99915.92
2023-04-23T07:59:59.675Z,99915.61
2023-04-23T08:02:28.657Z,99914.94
2023-04-23T08:04:56.879Z,99913.02
2023-04-23T08:07:24.887Z,99909.95
2023-04-23T08:09:52.686Z,99907.14
2023-04-23T08:12:21.244Z,99901.46
2023-04-23T08:14:50.865Z,99902.70
2023-04-23T08:17:19.428Z,99895.23
2023-04-23T08:19:47.165Z,99895.29
2023-04-23T08:22:16.491Z,99896.66
2023-04-23T08:24:44.627Z,99897.91
2023-04-23T08:27:12.451Z,99896.83
2023-04-23T08:29:40.821Z,99899.28
2023-04-23T08:32:09.088Z,99900.38
2023-04-23T08:34:37.347Z,99898.41
2023-04-23T08:37:08.563Z,99897.77
2023-04-23T08:39:40.684Z,99897.45
2023-04-23T08:42:15.122Z,99890.48
2023-04-23T08:44:45.851Z,99888.94
2023-04-23T08:47:13.670Z,99894.50
2023-04-23T08:49:41.863Z,99891.40
2023-04-23T08:52:15.777Z,99893.52
2023-04-23T08:54:45.975Z,99889.08
2023-04-23T08:57:13.938Z,99891.70
2023-04-23T08:59:42.071Z,99893.03
2023-04-23T09:02:10.673Z,99889.98
2023-04-23T09:04:39.155Z,99888.97
2023-04-23T09:07:11.624Z,99888.92
2023-04-23T09:09:41.003Z,99891.52
2023-04-23T09:12:09.279Z,99889.42
2023-04-23T09:14:37.447Z,99887.08
2023-04-23T09:17:05.359Z,99885.36
2023-04-23T09:19:33.234Z,99889.39
2023-04-23T09:22:02.152Z,99886.31
2023-04-23T09:24:30.665Z,99882.02
2023-04-23T09:26:59.040Z,99883.19
2023-04-23T09:29:27.059Z,99883.38
2023-04-23T09:31:55.408Z,99878.72
2023-04-23T09:34:23.940Z,99879.18
2023-04-23T09:36:52.653Z,99873.96
2023-04-23T09:39:23.990Z,99875.09
2023-04-23T09:41:52.810Z,99876.04
2023-04-23T09:44:24.185Z,99873.70
2023-04-23T09:46:51.955Z,99871.27
2023-04-23T09:49:20.033Z,99870.86
2023-04-23T09:51:48.336Z,99868.94
2023-04-23T09:54:23.517Z,99869.42
2023-04-23T09:56:57.184Z,99872.31
2023-04-23T09:59:39.500Z,99868.48
2023-04-23T10:02:14.629Z,99872.11
2023-04-23T10:04:42.855Z,99871.60
2023-04-23T10:07:19.762Z,99875.81
2023-04-23T10:09:48.214Z,99874.61
2023-04-23T10:14:49.476Z,99872.57
2023-04-23T10:17:17.247Z,99872.39
2023-04-23T10:19:45.633Z,99871.81
2023-04-23T10:24:45.716Z,99871.42
2023-04-23T10:27:28.427Z,99872.33
2023-04-23T10:30:01.149Z,99873.56
2023-04-23T10:32:29.471Z,99869.88
2023-04-23T10:34:57.688Z,99872.15
2023-04-23T10:37:25.740Z,99869.98
2023-04-23T10:39:56.759Z,99867.43
2023-04-23T10:42:24.692Z,99865.41
2023-04-23T10:44:59.430Z,99863.96
2023-04-23T10:47:30.803Z,99863.96
2023-04-23T10:49:58.533Z,99861.70
2023-04-23T10:52:26.409Z,99860.38
2023-04-23T10:54:57.440Z,99856.83
2023-04-23T10:57:25.218Z,99856.80
2023-04-23T10:59:54.047Z,99857.46
2023-04-23T11:02:23.412Z,99860.02
2023-04-23T11:04:55.107Z,99858.29
2023-04-23T11:07:26.056Z,99858.92
2023-04-23T11:09:56.539Z,99859.14
2023-04-23T11:12:24.445Z,99856.40
2023-04-23T11:14:52.852Z,99859.10
2023-04-23T11:17:25.058Z,99860.74
2023-04-23T11:20:13.602Z,99859.96
2023-04-23T11:22:48.860Z,99858.08
2023-04-23T11:25:27.349Z,99856.17
2023-04-23T11:27:55.726Z,99857.98
2023-04-23T11:30:24.473Z,99855.88
2023-04-23T11:32:53.891Z,99857.35
2023-04-23T11:35:22.990Z,99857.50
2023-04-23T11:37:51.175Z,99856.83
2023-04-23T11:40:19.615Z,99855.20
2023-04-23T11:42:48.073Z,99853.67
2023-04-23T11:45:16.874Z,99853.04
2023-04-23T11:47:45.927Z,99851.90
2023-04-23T11:50:17.577Z,99852.02
2023-04-23T11:52:45.760Z,99853.99
2023-04-23T11:55:14.064Z,99852.65
2023-04-23T11:57:49.315Z,99851.45
2023-04-23T12:00:17.928Z,99852.41
2023-04-23T12:02:52.721Z,99850.58
2023-04-23T12:05:24.195Z,99847.48
2023-04-23T12:07:52.219Z,99846.85
2023-04-23T12:10:20.992Z,99844.17
2023-04-23T12:12:49.422Z,99840.70
2023-04-23T12:15:17.261Z,99842.31
2023-04-23T12:17:48.814Z,99838.88
2023-04-23T12:20:21.193Z,99840.81
2023-04-23T12:22:49.067Z,99840.87
2023-04-23T12:25:17.217Z,99837.36
2023-04-23T12:27:45.632Z,99841.09
2023-04-23T12:30:13.832Z,99837.77
2023-04-23T12:32:42.074Z,99838.13
2023-04-23T12:35:11.226Z,99836.05
2023-04-23T12:37:39.183Z,99836.56
2023-04-23T12:40:07.331Z,99833.86
2023-04-23T12:42:36.198Z,99831.86
2023-04-23T12:45:07.975Z,99832.08
2023-04-23T12:47:35.759Z,99827.37
2023-04-23T12:50:05.799Z,99825.69
2023-04-23T12:52:33.912Z,99822.46
2023-04-23T12:55:01.773Z,99821.95
2023-04-23T12:57:29.740Z,99821.11
2023-04-23T12:59:57.500Z,99822.29
2023-04-23T13:02:25.985Z,99820.89
2023-04-23T13:04:59.650Z,99818.32
2023-04-23T13:07:27.982Z,99819.45
2023-04-23T13:09:57.272Z,99817.56
2023-04-23T13:12:25.672Z,99817.32
2023-04-23T13:14:53.547Z,99819.64
2023-04-23T13:17:21.930Z,99818.34
2023-04-23T13:19:49.923Z,99819.64
2023-04-23T13:22:17.745Z,99815.18
2023-04-23T13:24:45.669Z,99812.96
2023-04-23T13:27:13.851Z,99811.17
2023-04-23T13:29:42.139Z,99810.42
2023-04-23T13:32:10.783Z,99810.27
2023-04-23T13:34:38.828Z,99807.64
2023-04-23T13:37:09.344Z,99803.91
2023-04-23T13:39:38.806Z,99803.76
2023-04-23T13:42:10.205Z,99798.40
2023-04-23T13:44:38.466Z,99796.11
2023-04-23T13:47:06.382Z,99796.05
2023-04-23T13:49:34.241Z,99790.95
2023-04-23T13:52:06.799Z,99793.64
2023-04-23T13:54:39.357Z,99791.75
2023-04-23T13:57:07.386Z,99791.19
2023-04-23T13:59:35.567Z,99789.66
2023-04-23T14:02:03.392Z,99789.80
2023-04-23T14:04:31.299Z,99788.94
2023-04-23T14:06:59.179Z,99787.57
2023-04-23T14:09:27.099Z,99787.42
2023-04-23T14:11:55.103Z,99789.62
2023-04-23T14:14:23.159Z,99791.11
2023-04-23T14:16:51.034Z,99789.55
2023-04-23T14:19:19.149Z,99788.67
2023-04-23T14:21:46.873Z,99785.11
2023-04-23T14:24:18.782Z,99781.91
2023-04-23T14:26:49.703Z,99779.66
2023-04-23T14:29:19.285Z,99780.52
2023-04-23T14:31:47.193Z,99781.60
2023-04-23T14:34:14.992Z,99782.70
2023-04-23T14:36:42.943Z,99779.61
2023-04-23T14:39:09.596Z,99780.80
2023-04-23T14:41:37.368Z,99780.94
2023-04-23T14:44:04.142Z,99778.70
2023-04-23T14:46:31.043Z,99777.73
2023-04-23T14:48:57.802Z,99779.36
2023-04-23T14:51:24.420Z,99775.31
2023-04-23T14:53:51.273Z,99778.51
2023-04-23T14:56:17.899Z,99774.52
2023-04-23T14:58:44.589Z,99778.70
2023-04-23T15:01:11.119Z,99775.61
2023-04-23T15:03:37.823Z,99776.11
2023-04-23T15:06:05.866Z,99775.51
2023-04-23T15:08:32.882Z,99769.77
2023-04-23T15:11:00.200Z,99770.14
2023-04-23T15:13:38.430Z,99770.41
2023-04-23T15:16:08.155Z,99768.53
2023-04-23T15:18:35.450Z,99769.45
2023-04-23T15:21:03.853Z,99772.52
2023-04-23T15:23:31.366Z,99769.63
2023-04-23T15:25:57.987Z,99767.71
2023-04-23T15:28:25.218Z,99765.30
2023-04-23T15:30:52.220Z,99761.83
2023-04-23T15:33:21.866Z,99764.63
2023-04-23T15:35:51.073Z,99763.40
2023-04-23T15:38:18.399Z,99763.41
2023-04-23T15:40:45.107Z,99762.06
2023-04-23T15:43:14.819Z,99765.05
2023-04-23T15:45:42.639Z,99768.58
2023-04-23T15:48:09.566Z,99764.06
2023-04-23T15:50:36.325Z,99763.29
2023-04-23T15:53:02.872Z,99761.64
2023-04-23T15:55:29.452Z,99762.02
2023-04-23T15:57:56.078Z,99760.52
2023-04-23T16:00:22.725Z,99758.48
2023-04-23T16:02:49.431Z,99757.62
2023-04-23T16:05:16.674Z,99753.54
2023-04-23T16:07:44.450Z,99754.06
2023-04-23T16:10:11.186Z,99753.65
2023-04-23T16:12:37.819Z,99756.61
2023-04-23T16:15:04.811Z,99757.57
2023-04-23T16:17:31.499Z,99759.48
2023-04-23T16:19:58.211Z,99758.69
2023-04-23T16:22:25.600Z,99757.20
2023-04-23T16:24:52.146Z,99759.67
2023-04-23T16:27:18.685Z,99759.36
2023-04-23T16:29:45.218Z,99759.54
2023-04-23T16:32:11.780Z,99758.02
2023-04-23T16:34:38.694Z,99760.42
2023-04-23T16:37:05.756Z,99763.44
2023-04-23T16:39:32.342Z,99764.90
2023-04-23T16:41:59.030Z,99762.35
2023-04-23T16:44:25.680Z,99763.66
2023-04-23T16:46:52.804Z,99764.56
2023-04-23T16:49:19.534Z,99762.86
2023-04-23T16:51:46.104Z,99760.96
2023-04-23T16:54:12.692Z,99758.76
2023-04-23T16:56:39.361Z,99758.36
2023-04-23T16:59:05.952Z,99760.80
2023-04-23T17:01:32.657Z,99761.44
2023-04-23T17:03:59.565Z,99763.88
2023-04-23T17:06:27.456Z,99765.23
2023-04-23T17:08:54.434Z,99770.84
2023-04-23T17:11:23.030Z,99770.05
2023-04-23T17:13:50.850Z,99772.36
2023-04-23T17:16:17.801Z,99769.02
2023-04-23T17:18:44.434Z,99772.84
2023-04-23T17:21:11.133Z,99773.67
2023-04-23T17:23:37.879Z,99774.25
2023-04-23T17:26:04.442Z,99778.58
2023-04-23T17:28:31.028Z,99781.38
2023-04-23T17:30:57.577Z,99779.45
2023-04-23T17:33:24.485Z,99781.77
2023-04-23T17:35:52.425Z,99784.30
2023-04-23T17:38:20.753Z,99785.45
2023-04-23T17:40:47.654Z,99789.21
2023-04-23T17:43:14.214Z,99790.95
2023-04-23T17:45:41.528Z,99792.59
2023-04-23T17:48:09.170Z,99798.05
2023-04-23T17:50:35.824Z,99799.44
2023-04-23T17:53:02.383Z,99799.65
2023-04-23T17:55:28.975Z,99805.77
2023-04-23T17:57:56.061Z,99811.30
2023-04-23T18:00:23.194Z,99813.45
2023-04-23T18:02:49.896Z,99811.52
2023-04-23T18:05:16.669Z,99808.94
2023-04-23T18:07:43.622Z,99812.49
2023-04-23T18:10:10.560Z,99810.64
2023-04-23T18:12:37.342Z,99811.04
2023-04-23T18:15:04.328Z,99809.63
2023-04-23T18:17:31.228Z,99810.82
2023-04-23T18:19:58.932Z,99812.51
2023-04-23T18:22:25.563Z,99813.56
2023-04-23T18:24:52.592Z,99812.20
2023-04-23T18:27:19.599Z,99810.52
2023-04-23T18:29:46.303Z,99807.75
2023-04-23T18:32:20.983Z,99806.48
2023-04-23T18:34:54.476Z,99807.77
2023-04-23T18:37:41.516Z,99809.30
2023-04-23T18:40:08.868Z,99809.64
2023-04-23T18:42:36.762Z,99807.36
2023-04-23T18:45:04.459Z,99810.84
2023-04-23T18:47:32.278Z,99817.27
2023-04-23T18:50:02.722Z,99812.81
2023-04-23T18:52:29.396Z,99815.45
2023-04-23T18:54:55.952Z,99815.86
2023-04-23T18:57:22.483Z,99815.85
2023-04-23T18:59:49.013Z,99817.00
2023-04-23T19:02:28.075Z,99817.16
2023-04-23T19:05:01.480Z,99816.77
2023-04-23T19:07:28.127Z,99813.92
2023-04-23T19:09:54.833Z,99814.94
2023-04-23T19:12:21.410Z,99815.56
2023-04-23T19:14:48.094Z,99816.31
2023-04-23T19:17:16.284Z,99812.42
2023-04-23T19:19:44.649Z,99814.02
2023-04-23T19:22:11.594Z,99814.27
2023-04-23T19:24:38.170Z,99813.12
2023-04-23T19:27:06.872Z,99806.93
2023-04-23T19:29:33.437Z,99812.75
2023-04-23T19:32:00.072Z,99812.95
2023-04-23T19:34:27.179Z,99815.58
2023-04-23T19:36:53.787Z,99811.45
2023-04-23T19:39:23.455Z,99808.64
2023-04-23T19:41:50.311Z,99810.80
2023-04-23T19:44:17.126Z,99809.99
2023-04-23T19:46:43.721Z,99808.25
2023-04-23T19:49:10.495Z,99804.84
2023-04-23T19:51:38.217Z,99809.66
2023-04-23T19:54:04.912Z,99808.30
2023-04-23T19:56:31.476Z,99808.69
2023-04-23T19:58:58.207Z,99805.91
2023-04-23T20:01:28.061Z,99804.36
2023-04-23T20:03:55.202Z,99801.55
2023-04-23T20:06:21.884Z,99800.02
2023-04-23T20:09:07.742Z,99801.24
2023-04-23T20:11:35.245Z,99804.70
2023-04-23T20:14:02.097Z,99801.02
2023-04-23T20:16:28.786Z,99798.20
2023-04-23T20:18:58.381Z,99797.27
2023-04-23T20:21:25.182Z,99798.76
2023-04-23T20:23:51.766Z,99800.52
2023-04-23T20:26:18.819Z,99800.14
2023-04-23T20:28:47.482Z,99799.59
2023-04-23T20:31:14.557Z,99798.92
2023-04-23T20:33:41.451Z,99796.79
2023-04-23T20:36:09.982Z,99798.45
2023-04-23T20:38:38.000Z,99799.80
2023-04-23T20:41:05.645Z,99800.29
2023-04-23T20:43:33.141Z,99801.84
2023-04-23T20:46:00.229Z,99800.27
2023-04-23T20:48:29.291Z,99801.17
2023-04-23T20:50:59.556Z,99797.86
2023-04-23T20:53:26.415Z,99800.23
2023-04-23T20:55:52.960Z,99800.52
2023-04-23T20:58:19.724Z,99803.15
2023-04-23T21:00:46.478Z,99801.54
2023-04-23T21:03:13.412Z,99803.91
2023-04-23T21:05:44.274Z,99805.52
2023-04-23T21:08:11.331Z,99807.45
2023-04-23T21:10:38.405Z,99805.27
2023-04-23T21:13:06.719Z,99807.85
2023-04-23T21:15:35.210Z,99807.02
2023-04-23T21:18:02.809Z,99805.90
2023-04-23T21:20:29.739Z,99807.98
2023-04-23T21:22:56.278Z,99810.08
2023-04-23T21:25:22.869Z,99809.50
2023-04-23T21:27:49.628Z,99809.99
2023-04-23T21:30:24.661Z,99809.16
2023-04-23T21:32:52.315Z,99811.33
2023-04-23T21:35:19.233Z,99812.77
2023-04-23T21:37:45.974Z,99810.67
2023-04-23T21:40:12.515Z,99808.89
2023-04-23T21:42:39.528Z,99809.63
2023-04-23T21:45:06.642Z,99805.80
2023-04-23T21:47:33.180Z,99805.09
2023-04-23T21:50:01.517Z,99803.42
2023-04-23T21:52:28.420Z,99807.33
2023-04-23T21:54:55.091Z,99803.10
2023-04-23T21:57:21.648Z,99802.69
2023-04-23T21:59:48.217Z,99804.95
2023-04-23T22:02:15.631Z,99804.72
2023-04-23T22:04:42.340Z,99803.43
2023-04-23T22:07:12.560Z,99803.15
2023-04-23T22:09:39.671Z,99802.88
2023-04-23T22:12:06.682Z,99803.86
2023-04-23T22:14:33.438Z,99802.61
2023-04-23T22:17:02.022Z,99800.23
2023-04-23T22:19:29.138Z,99797.27
2023-04-23T22:21:55.693Z,99797.94
2023-04-23T22:24:22.564Z,99794.99
2023-04-23T22:26:49.311Z,99794.11
2023-04-23T22:29:15.870Z,99789.44
2023-04-23T22:31:42.622Z,99789.91
2023-04-23T22:34:09.251Z,99791.15
2023-04-23T22:36:36.010Z,99788.08
2023-04-23T22:39:04.745Z,99786.59
2023-04-23T22:41:33.156Z,99785.45
2023-04-23T22:44:00.921Z,99780.08
2023-04-23T22:46:28.126Z,99781.09
2023-04-23T22:48:54.767Z,99777.34
2023-04-23T22:51:21.348Z,99776.14
2023-04-23T22:53:48.066Z,99772.67
2023-04-23T22:56:14.694Z,99772.14
2023-04-23T22:58:41.241Z,99768.96
2023-04-23T23:01:07.896Z,99769.29
2023-04-23T23:03:34.699Z,99770.73
2023-04-23T23:06:01.424Z,99774.41
2023-04-23T23:08:27.997Z,99772.12
2023-04-23T23:10:54.587Z,99770.55
2023-04-23T23:13:21.270Z,99772.15
2023-04-23T23:15:47.906Z,99770.42
2023-04-23T23:18:14.443Z,99764.95
2023-04-23T23:20:41.229Z,99762.34
2023-04-23T23:23:07.797Z,99761.59
2023-04-23T23:25:38.250Z,99763.41
2023-04-23T23:28:05.189Z,99762.71
2023-04-23T23:30:31.847Z,99757.77
2023-04-23T23:32:58.844Z,99760.11
2023-04-23T23:35:25.647Z,99758.80
2023-04-23T23:37:52.762Z,99756.92
2023-04-23T23:40:19.361Z,99755.69
2023-04-23T23:42:46.075Z,99748.56
2023-04-23T23:45:13.213Z,99748.10
2023-04-23T23:47:39.891Z,99742.97
2023-04-23T23:50:06.923Z,99744.90
2023-04-23T23:52:33.597Z,99739.13
2023-04-23T23:55:00.219Z,99743.08
2023-04-23T23:57:27.056Z,99736.99
2023-04-23T23:59:53.704Z,99736.32
